createdAt,value
2019-03-20T00:00:20.003Z,6.90
2019-03-20T00:01:20.105Z,6.20
2019-03-20T00:02:19.705Z,5.60
2019-03-20T00:03:19.704Z,7.10
2019-03-20T00:04:19.055Z,4.80
2019-03-20T00:05:19.046Z,7.80
2019-03-20T00:06:19.038Z,6.10
2019-03-20T00:07:19.450Z,8.40
2019-03-20T00:08:19.704Z,6.80
2019-03-20T00:09:19.004Z,8.30
2019-03-20T00:10:18.995Z,5.10
2019-03-20T00:11:19.709Z,4.90
2019-03-20T00:12:18.971Z,7.30
2019-03-20T00:13:19.186Z,7.60
2019-03-20T00:14:19.239Z,9.50
2019-03-20T00:15:18.939Z,9.30
2019-03-20T00:16:18.934Z,9.90
2019-03-20T00:17:18.923Z,7.40
2019-03-20T00:18:18.913Z,4.20
2019-03-20T00:19:19.025Z,10.70
2019-03-20T00:20:18.895Z,10.50
2019-03-20T00:21:18.878Z,6.80
2019-03-20T00:22:18.873Z,6.70
2019-03-20T00:23:18.859Z,8.00
2019-03-20T00:24:18.849Z,5.10
2019-03-20T00:25:18.964Z,6.70
2019-03-20T00:26:18.829Z,5.50
2019-03-20T00:27:19.095Z,7.00
2019-03-20T00:28:18.806Z,6.00
2019-03-20T00:29:18.795Z,7.10
2019-03-20T00:30:18.799Z,9.50
2019-03-20T00:31:18.908Z,9.10
2019-03-20T00:32:18.782Z,6.40
2019-03-20T00:33:18.757Z,6.50
2019-03-20T00:34:19.027Z,6.20
2019-03-20T00:35:18.741Z,9.80
2019-03-20T00:36:18.725Z,11.30
2019-03-20T00:37:18.840Z,7.30
2019-03-20T00:38:18.704Z,5.20
2019-03-20T00:39:18.695Z,6.70
2019-03-20T00:40:18.684Z,7.80
2019-03-20T00:41:18.672Z,6.70
2019-03-20T00:42:18.680Z,7.40
2019-03-20T00:43:18.692Z,5.80
2019-03-20T00:44:18.650Z,5.30
2019-03-20T00:45:18.631Z,5.80
2019-03-20T00:46:18.620Z,9.50
2019-03-20T00:47:18.895Z,4.90
2019-03-20T00:48:18.604Z,6.30
2019-03-20T00:49:18.651Z,7.90
2019-03-20T00:50:18.579Z,11.40
2019-03-20T00:51:18.569Z,7.20
2019-03-20T00:52:18.560Z,8.10
2019-03-20T00:53:18.550Z,8.10
2019-03-20T00:54:18.538Z,7.50
2019-03-20T00:55:18.568Z,6.60
2019-03-20T00:56:18.520Z,6.30
2019-03-20T00:57:18.516Z,6.90
2019-03-20T00:58:18.498Z,6.20
2019-03-20T00:59:18.767Z,7.70
2019-03-20T01:00:18.477Z,7.70
2019-03-20T01:01:18.507Z,5.40
2019-03-20T01:02:18.458Z,5.60
2019-03-20T01:03:18.451Z,4.90
2019-03-20T01:04:18.438Z,6.50
2019-03-20T01:05:18.708Z,3.20
2019-03-20T01:06:18.416Z,6.80
2019-03-20T01:07:18.479Z,6.70
2019-03-20T01:08:18.394Z,5.20
2019-03-20T01:09:18.384Z,6.00
2019-03-20T01:10:18.422Z,5.20
2019-03-20T01:11:18.367Z,9.10
2019-03-20T01:12:18.354Z,5.90
2019-03-20T01:13:18.382Z,6.60
2019-03-20T01:14:18.337Z,11.00
2019-03-20T01:15:18.325Z,10.00
2019-03-20T01:16:18.312Z,5.70
2019-03-20T01:17:18.587Z,5.40
2019-03-20T01:18:18.292Z,5.60
2019-03-20T01:19:18.327Z,10.40
2019-03-20T01:20:18.273Z,4.60
2019-03-20T01:21:18.262Z,6.60
2019-03-20T01:22:18.250Z,9.10
2019-03-20T01:23:18.240Z,6.40
2019-03-20T01:24:18.241Z,5.30
2019-03-20T01:25:18.283Z,3.70
2019-03-20T01:26:18.210Z,11.40
2019-03-20T01:27:18.199Z,6.10
2019-03-20T01:28:18.188Z,10.70
2019-03-20T01:29:18.179Z,8.60
2019-03-20T01:30:18.450Z,5.30
2019-03-20T01:31:18.228Z,6.30
2019-03-20T01:32:18.152Z,7.00
2019-03-20T01:33:18.142Z,9.20
2019-03-20T01:34:18.127Z,5.90
2019-03-20T01:35:23.809Z,5.40
2019-03-20T01:36:19.145Z,5.50
2019-03-20T01:37:18.378Z,8.80
2019-03-20T01:38:18.087Z,11.10
2019-03-20T01:39:18.076Z,5.10
2019-03-20T01:40:18.071Z,4.40
2019-03-20T01:41:18.059Z,4.40
2019-03-20T01:42:18.361Z,7.80
2019-03-20T01:43:18.692Z,2.90
2019-03-20T01:44:19.333Z,10.90
2019-03-20T01:45:18.017Z,12.00
2019-03-20T01:46:18.011Z,6.50
2019-03-20T01:47:17.994Z,9.10
2019-03-20T01:48:18.024Z,5.20
2019-03-20T01:49:17.974Z,9.60
2019-03-20T01:50:17.968Z,4.40
2019-03-20T01:51:18.247Z,6.20
2019-03-20T01:52:17.942Z,6.60
2019-03-20T01:53:17.931Z,8.50
2019-03-20T01:54:17.958Z,8.40
2019-03-20T01:55:17.912Z,7.40
2019-03-20T01:56:17.901Z,7.10
2019-03-20T01:57:17.934Z,7.70
2019-03-20T01:58:18.197Z,6.20
2019-03-20T01:59:17.871Z,4.50
2019-03-20T02:00:18.329Z,5.00
2019-03-20T02:01:17.905Z,7.40
2019-03-20T02:02:17.881Z,4.50
2019-03-20T02:03:17.865Z,6.60
2019-03-20T02:04:17.826Z,5.10
2019-03-20T02:05:18.092Z,5.20
2019-03-20T02:06:17.883Z,7.50
2019-03-20T02:07:17.791Z,6.50
2019-03-20T02:08:17.778Z,5.50
2019-03-20T02:09:17.768Z,5.20
2019-03-20T02:10:17.756Z,4.90
2019-03-20T02:11:17.746Z,6.10
2019-03-20T02:12:18.084Z,5.10
2019-03-20T02:13:17.727Z,4.70
2019-03-20T02:14:17.716Z,4.40
2019-03-20T02:15:17.710Z,3.10
2019-03-20T02:16:17.696Z,6.40
2019-03-20T02:17:17.685Z,4.90
2019-03-20T02:18:17.742Z,6.30
2019-03-20T02:19:18.645Z,6.50
2019-03-20T02:20:17.659Z,7.20
2019-03-20T02:21:17.658Z,4.40
2019-03-20T02:22:17.641Z,7.00
2019-03-20T02:23:17.626Z,6.00
2019-03-20T02:24:17.658Z,8.70
2019-03-20T02:25:17.600Z,8.70
2019-03-20T02:26:17.867Z,5.30
2019-03-20T02:27:17.579Z,20.50
2019-03-20T02:28:17.572Z,18.80
2019-03-20T02:29:17.578Z,7.30
2019-03-20T02:30:17.593Z,21.50
2019-03-20T02:31:17.538Z,11.60
2019-03-20T02:32:17.528Z,11.40
2019-03-20T02:33:17.796Z,7.40
2019-03-20T02:34:17.517Z,8.60
2019-03-20T02:35:17.520Z,10.50
2019-03-20T02:36:17.553Z,7.90
2019-03-20T02:37:17.474Z,5.80
2019-03-20T02:38:17.465Z,7.60
2019-03-20T02:39:17.461Z,8.90
2019-03-20T02:40:17.445Z,4.60
2019-03-20T02:41:17.447Z,4.10
2019-03-20T02:42:17.464Z,7.40
2019-03-20T02:43:17.416Z,6.30
2019-03-20T02:44:17.408Z,5.30
2019-03-20T02:45:17.401Z,5.30
2019-03-20T02:46:17.662Z,8.00
2019-03-20T02:47:17.372Z,7.10
2019-03-20T02:48:17.402Z,5.90
2019-03-20T02:49:17.352Z,5.40
2019-03-20T02:50:17.352Z,4.20
2019-03-20T02:51:17.337Z,6.70
2019-03-20T02:52:17.625Z,5.50
2019-03-20T02:53:17.327Z,6.40
2019-03-20T02:54:17.352Z,5.20
2019-03-20T02:55:17.288Z,6.10
2019-03-20T02:56:17.277Z,6.00
2019-03-20T02:57:17.562Z,7.90
2019-03-20T02:58:17.542Z,5.50
2019-03-20T02:59:17.253Z,5.90
2019-03-20T03:01:40.282Z,7.90
2019-03-20T03:02:39.870Z,5.40
2019-03-20T03:03:39.880Z,5.80
2019-03-20T03:04:39.861Z,19.60
2019-03-20T03:05:39.843Z,10.80
2019-03-20T03:06:39.828Z,7.20
2019-03-20T03:07:40.224Z,9.10
2019-03-20T03:08:39.808Z,6.20
2019-03-20T03:09:39.797Z,5.20
2019-03-20T03:10:39.796Z,5.90
2019-03-20T03:11:39.791Z,7.10
2019-03-20T03:12:39.787Z,5.40
2019-03-20T03:13:40.174Z,6.60
2019-03-20T03:14:40.050Z,8.30
2019-03-20T03:15:39.750Z,4.60
2019-03-20T03:16:39.729Z,7.60
2019-03-20T03:17:39.725Z,6.30
2019-03-20T03:18:39.721Z,7.90
2019-03-20T03:19:39.839Z,7.70
2019-03-20T03:20:39.688Z,4.50
2019-03-20T03:21:39.991Z,5.50
2019-03-20T03:22:39.673Z,8.40
2019-03-20T03:23:39.657Z,14.00
2019-03-20T03:24:39.648Z,21.10
2019-03-20T03:25:39.758Z,5.20
2019-03-20T03:26:39.625Z,7.00
2019-03-20T03:27:39.627Z,7.10
2019-03-20T03:28:39.905Z,6.60
2019-03-20T03:29:39.594Z,6.10
2019-03-20T03:30:39.586Z,6.90
2019-03-20T03:31:39.729Z,7.90
2019-03-20T03:32:39.568Z,6.80
2019-03-20T03:33:39.555Z,5.40
2019-03-20T03:34:39.547Z,9.30
2019-03-20T03:35:39.828Z,6.90
2019-03-20T03:36:39.532Z,9.00
2019-03-20T03:37:39.626Z,8.20
2019-03-20T03:38:39.503Z,7.40
2019-03-20T03:39:39.493Z,6.10
2019-03-20T03:40:39.489Z,9.50
2019-03-20T03:41:39.507Z,6.20
2019-03-20T03:42:39.745Z,8.80
2019-03-20T03:43:39.497Z,4.80
2019-03-20T03:44:39.454Z,5.70
2019-03-20T03:45:39.440Z,7.70
2019-03-20T03:46:39.421Z,9.60
2019-03-20T03:47:39.418Z,5.30
2019-03-20T03:48:39.398Z,6.50
2019-03-20T03:49:39.720Z,10.00
2019-03-20T03:50:39.382Z,9.20
2019-03-20T03:51:39.371Z,12.30
2019-03-20T03:52:39.370Z,8.30
2019-03-20T03:53:39.378Z,9.60
2019-03-20T03:54:39.351Z,8.10
2019-03-20T03:55:39.683Z,6.50
2019-03-20T03:56:39.617Z,7.80
2019-03-20T03:57:39.467Z,6.10
2019-03-20T03:58:39.308Z,6.40
2019-03-20T03:59:39.285Z,8.90
2019-03-20T04:00:39.276Z,8.50
2019-03-20T04:01:39.407Z,6.30
2019-03-20T04:02:39.254Z,6.60
2019-03-20T04:03:39.734Z,14.70
2019-03-20T04:04:39.238Z,11.50
2019-03-20T04:05:39.229Z,11.00
2019-03-20T04:06:39.212Z,6.90
2019-03-20T04:07:39.284Z,6.00
2019-03-20T04:08:39.195Z,10.80
2019-03-20T04:09:39.184Z,10.40
2019-03-20T04:10:39.465Z,6.00
2019-03-20T04:11:39.167Z,10.30
2019-03-20T04:12:39.163Z,13.60
2019-03-20T04:13:39.430Z,5.20
2019-03-20T04:14:39.162Z,13.00
2019-03-20T04:15:39.129Z,8.90
2019-03-20T04:16:39.135Z,9.70
2019-03-20T04:17:39.397Z,12.40
2019-03-20T04:18:39.090Z,12.40
2019-03-20T04:19:39.115Z,9.90
2019-03-20T04:20:39.075Z,9.40
2019-03-20T04:21:39.058Z,9.20
2019-03-20T04:22:39.048Z,13.10
2019-03-20T04:23:39.040Z,5.30
2019-03-20T04:24:39.481Z,4.60
2019-03-20T04:25:39.057Z,6.20
2019-03-20T04:26:39.018Z,7.20
2019-03-20T04:27:39.009Z,7.60
2019-03-20T04:28:38.989Z,4.90
2019-03-20T04:29:38.979Z,6.00
2019-03-20T04:30:38.966Z,6.60
2019-03-20T04:31:39.931Z,8.20
2019-03-20T04:32:38.957Z,9.30
2019-03-20T04:33:39.640Z,8.90
2019-03-20T04:34:38.924Z,11.20
2019-03-20T04:35:38.925Z,5.70
2019-03-20T04:36:47.775Z,7.50
2019-03-20T04:37:40.013Z,6.80
2019-03-20T04:38:38.890Z,3.40
2019-03-20T04:39:38.876Z,4.70
2019-03-20T04:40:38.867Z,9.10
2019-03-20T04:41:38.854Z,8.40
2019-03-20T04:42:38.841Z,6.20
2019-03-20T04:43:39.253Z,7.00
2019-03-20T04:44:38.839Z,12.30
2019-03-20T04:45:38.811Z,8.00
2019-03-20T04:46:38.801Z,7.40
2019-03-20T04:47:38.789Z,7.90
2019-03-20T04:48:38.783Z,8.30
2019-03-20T04:49:39.460Z,6.20
2019-03-20T04:50:38.757Z,8.10
2019-03-20T04:51:38.775Z,6.50
2019-03-20T04:52:38.737Z,10.90
2019-03-20T04:53:38.750Z,10.60
2019-03-20T04:54:38.716Z,5.10
2019-03-20T04:55:38.826Z,6.10
2019-03-20T04:56:38.708Z,9.90
2019-03-20T04:57:38.735Z,8.20
2019-03-20T04:58:38.674Z,8.30
2019-03-20T04:59:38.664Z,6.90
2019-03-20T05:00:38.664Z,8.30
2019-03-20T05:01:38.763Z,8.50
2019-03-20T05:02:38.635Z,8.50
2019-03-20T05:03:38.625Z,8.20
2019-03-20T05:04:38.619Z,10.10
2019-03-20T05:05:38.605Z,11.20
2019-03-20T05:06:38.591Z,9.70
2019-03-20T05:07:39.273Z,10.70
2019-03-20T05:08:38.571Z,8.80
2019-03-20T05:09:38.577Z,7.60
2019-03-20T05:10:38.555Z,11.40
2019-03-20T05:11:38.539Z,8.30
2019-03-20T05:12:38.529Z,8.00
2019-03-20T05:13:38.643Z,7.50
2019-03-20T05:14:38.935Z,13.30
2019-03-20T05:15:38.502Z,8.20
2019-03-20T05:16:38.494Z,9.70
2019-03-20T05:17:38.478Z,8.50
2019-03-20T05:18:39.078Z,8.50
2019-03-20T05:19:38.519Z,8.30
2019-03-20T05:20:38.454Z,7.10
2019-03-20T05:21:38.724Z,8.20
2019-03-20T05:22:38.426Z,9.00
2019-03-20T05:23:38.418Z,12.70
2019-03-20T05:24:38.407Z,9.40
2019-03-20T05:25:38.471Z,9.90
2019-03-20T05:26:38.385Z,10.10
2019-03-20T05:27:38.377Z,7.80
2019-03-20T05:28:38.665Z,8.40
2019-03-20T05:29:38.352Z,10.60
2019-03-20T05:30:38.344Z,7.20
2019-03-20T05:31:38.393Z,9.20
2019-03-20T05:32:38.324Z,10.30
2019-03-20T05:33:38.317Z,14.00
2019-03-20T05:34:38.302Z,8.90
2019-03-20T05:35:38.570Z,12.40
2019-03-20T05:36:38.296Z,9.50
2019-03-20T05:37:38.314Z,8.60
2019-03-20T05:38:38.261Z,11.10
2019-03-20T05:39:38.253Z,9.60
2019-03-20T05:40:38.239Z,9.90
2019-03-20T05:41:38.249Z,9.00
2019-03-20T05:42:38.636Z,8.20
2019-03-20T05:43:38.289Z,10.60
2019-03-20T05:44:38.205Z,10.80
2019-03-20T05:45:38.193Z,11.70
2019-03-20T05:46:38.177Z,11.50
2019-03-20T05:47:38.232Z,19.80
2019-03-20T05:48:38.233Z,28.00
2019-03-20T05:49:38.625Z,44.30
2019-03-20T05:50:38.187Z,22.20
2019-03-20T05:51:38.161Z,36.00
2019-03-20T05:52:38.119Z,32.30
2019-03-20T05:53:38.120Z,19.70
2019-03-20T05:54:38.132Z,34.70
2019-03-20T05:55:38.215Z,10.80
2019-03-20T05:56:38.554Z,22.80
2019-03-20T05:57:38.071Z,28.50
2019-03-20T05:58:38.058Z,21.40
2019-03-20T05:59:38.043Z,14.70
2019-03-20T06:00:38.033Z,14.90
2019-03-20T06:01:38.103Z,15.70
2019-03-20T06:02:38.029Z,17.90
2019-03-20T06:03:38.413Z,32.00
2019-03-20T06:04:38.006Z,49.30
2019-03-20T06:05:37.981Z,32.00
2019-03-20T06:06:38.641Z,39.80
2019-03-20T06:07:38.008Z,29.30
2019-03-20T06:08:37.950Z,27.90
2019-03-20T06:09:37.949Z,31.70
2019-03-20T06:10:38.454Z,26.20
2019-03-20T06:11:37.924Z,13.50
2019-03-20T06:12:37.908Z,22.30
2019-03-20T06:13:37.943Z,28.20
2019-03-20T06:14:38.570Z,28.40
2019-03-20T06:15:37.894Z,27.00
2019-03-20T06:16:37.939Z,28.50
2019-03-20T06:17:38.356Z,26.60
2019-03-20T06:18:37.880Z,23.50
2019-03-20T06:19:37.928Z,27.60
2019-03-20T06:20:37.923Z,24.40
2019-03-20T06:21:37.832Z,21.70
2019-03-20T06:22:37.805Z,22.10
2019-03-20T06:23:37.804Z,16.50
2019-03-20T06:24:38.080Z,13.60
2019-03-20T06:25:37.840Z,14.60
2019-03-20T06:26:37.917Z,11.70
2019-03-20T06:27:37.760Z,18.20
2019-03-20T06:28:37.774Z,24.20
2019-03-20T06:29:37.746Z,30.10
2019-03-20T06:30:37.732Z,30.60
2019-03-20T06:31:37.782Z,30.20
2019-03-20T06:32:37.707Z,23.40
2019-03-20T06:33:37.698Z,27.60
2019-03-20T06:34:37.688Z,21.60
2019-03-20T06:35:37.703Z,20.90
2019-03-20T06:36:37.713Z,26.60
2019-03-20T06:37:37.733Z,28.50
2019-03-20T06:38:37.654Z,23.30
2019-03-20T06:39:37.638Z,18.20
2019-03-20T06:40:37.667Z,22.80
2019-03-20T06:41:39.076Z,20.30
2019-03-20T06:42:37.760Z,16.00
2019-03-20T06:43:39.687Z,15.40
2019-03-20T06:44:37.606Z,15.90
2019-03-20T06:45:37.588Z,13.40
2019-03-20T06:46:37.575Z,12.70
2019-03-20T06:47:37.568Z,18.70
2019-03-20T06:48:37.574Z,15.50
2019-03-20T06:49:37.572Z,15.60
2019-03-20T06:50:37.522Z,13.00
2019-03-20T06:51:37.526Z,18.70
2019-03-20T06:52:37.508Z,13.80
2019-03-20T06:53:37.490Z,14.10
2019-03-20T06:54:37.478Z,15.10
2019-03-20T06:55:37.861Z,10.10
2019-03-20T06:56:37.469Z,11.10
2019-03-20T06:57:37.456Z,14.80
2019-03-20T06:58:37.435Z,10.00
2019-03-20T06:59:37.434Z,14.90
2019-03-20T07:00:37.420Z,11.00
2019-03-20T07:01:37.720Z,12.50
2019-03-20T07:02:37.393Z,13.60
2019-03-20T07:03:37.387Z,12.80
2019-03-20T07:04:37.377Z,10.50
2019-03-20T07:05:37.423Z,12.50
2019-03-20T07:06:37.357Z,16.60
2019-03-20T07:07:44.003Z,12.80
2019-03-20T07:08:38.847Z,13.10
2019-03-20T07:09:37.328Z,14.80
2019-03-20T07:10:37.309Z,12.80
2019-03-20T07:11:37.305Z,12.70
2019-03-20T07:12:37.290Z,11.00
2019-03-20T07:13:37.372Z,12.60
2019-03-20T07:14:37.270Z,18.10
2019-03-20T07:15:37.560Z,18.50
2019-03-20T07:16:37.256Z,12.80
2019-03-20T07:17:37.255Z,10.00
2019-03-20T07:18:37.226Z,12.40
2019-03-20T07:19:37.266Z,14.30
2019-03-20T07:20:37.214Z,10.60
2019-03-20T07:21:37.319Z,10.50
2019-03-20T07:22:37.666Z,12.20
2019-03-20T07:23:37.372Z,11.20
2019-03-20T07:24:37.173Z,13.80
2019-03-20T07:25:37.206Z,8.90
2019-03-20T07:26:37.146Z,10.40
2019-03-20T07:27:37.135Z,14.10
2019-03-20T07:28:37.130Z,10.10
2019-03-20T07:29:37.158Z,10.50
2019-03-20T07:30:37.131Z,10.90
2019-03-20T07:31:37.379Z,12.00
2019-03-20T07:32:37.132Z,11.30
2019-03-20T07:33:37.208Z,9.50
2019-03-20T07:34:37.195Z,12.20
2019-03-20T07:35:37.135Z,13.70
2019-03-20T07:36:37.053Z,13.80
2019-03-20T07:37:37.071Z,10.40
2019-03-20T07:38:37.031Z,11.90
2019-03-20T07:39:37.081Z,10.10
2019-03-20T07:40:37.068Z,11.70
2019-03-20T07:41:37.455Z,9.50
2019-03-20T07:42:37.011Z,10.40
2019-03-20T07:43:37.007Z,14.90
2019-03-20T07:44:37.020Z,14.20
2019-03-20T07:45:36.954Z,14.20
2019-03-20T07:46:37.662Z,15.00
2019-03-20T07:47:36.925Z,11.30
2019-03-20T07:48:36.957Z,8.60
2019-03-20T07:49:36.994Z,11.30
2019-03-20T07:50:36.923Z,16.20
2019-03-20T07:51:36.884Z,12.60
2019-03-20T07:52:36.874Z,11.30
2019-03-20T07:53:37.196Z,12.90
2019-03-20T07:54:36.851Z,17.90
2019-03-20T07:55:36.891Z,13.60
2019-03-20T07:56:36.920Z,13.80
2019-03-20T07:57:36.861Z,15.90
2019-03-20T07:58:36.809Z,15.90
2019-03-20T07:59:36.800Z,12.80
2019-03-20T08:00:37.550Z,12.80
2019-03-20T08:01:36.818Z,13.60
2019-03-20T08:02:36.785Z,15.70
2019-03-20T08:03:36.905Z,8.40
2019-03-20T08:04:36.747Z,13.70
2019-03-20T08:05:37.061Z,13.80
2019-03-20T08:06:36.743Z,8.50
2019-03-20T08:07:36.766Z,13.80
2019-03-20T08:08:36.778Z,12.20
2019-03-20T08:09:36.905Z,11.00
2019-03-20T08:10:36.689Z,10.30
2019-03-20T08:11:36.678Z,13.20
2019-03-20T08:12:37.066Z,12.30
2019-03-20T08:13:36.805Z,19.60
2019-03-20T08:14:36.650Z,10.50
2019-03-20T08:15:36.628Z,11.60
2019-03-20T08:16:36.620Z,11.70
2019-03-20T08:17:36.620Z,10.50
2019-03-20T08:18:36.600Z,9.00
2019-03-20T08:19:36.628Z,12.00
2019-03-20T08:20:36.582Z,13.00
2019-03-20T08:21:36.569Z,16.50
2019-03-20T08:22:36.575Z,13.00
2019-03-20T08:23:36.544Z,11.30
2019-03-20T08:24:36.544Z,13.90
2019-03-20T08:25:37.330Z,13.40
2019-03-20T08:26:36.512Z,15.10
2019-03-20T08:27:36.513Z,18.80
2019-03-20T08:28:36.489Z,14.00
2019-03-20T08:29:36.488Z,20.30
2019-03-20T08:30:36.478Z,13.30
2019-03-20T08:31:36.896Z,13.10
2019-03-20T08:32:36.449Z,15.80
2019-03-20T08:33:36.442Z,11.90
2019-03-20T08:34:36.427Z,18.90
2019-03-20T08:35:36.421Z,12.40
2019-03-20T08:36:36.406Z,10.60
2019-03-20T08:37:36.449Z,8.80
2019-03-20T08:38:37.556Z,11.30
2019-03-20T08:39:36.521Z,9.30
2019-03-20T08:40:36.484Z,11.90
2019-03-20T08:41:36.354Z,10.80
2019-03-20T08:42:36.349Z,15.30
2019-03-20T08:43:36.526Z,11.70
2019-03-20T08:44:36.333Z,11.60
2019-03-20T08:45:36.784Z,9.60
2019-03-20T08:46:36.299Z,12.50
2019-03-20T08:47:36.431Z,13.60
2019-03-20T08:48:36.401Z,13.20
2019-03-20T08:49:36.434Z,15.30
2019-03-20T08:50:36.282Z,12.10
2019-03-20T08:51:36.920Z,10.20
2019-03-20T08:52:36.618Z,14.20
2019-03-20T08:53:36.285Z,12.50
2019-03-20T08:54:36.269Z,12.00
2019-03-20T08:55:36.317Z,11.30
2019-03-20T08:56:36.200Z,11.90
2019-03-20T08:57:36.365Z,16.20
2019-03-20T08:58:36.301Z,11.60
2019-03-20T08:59:36.190Z,14.00
2019-03-20T09:00:36.157Z,13.50
2019-03-20T09:01:36.227Z,18.20
2019-03-20T09:02:36.132Z,16.30
2019-03-20T09:03:36.123Z,12.00
2019-03-20T09:04:37.104Z,11.10
2019-03-20T09:05:36.566Z,13.80
2019-03-20T09:06:36.591Z,15.50
2019-03-20T09:07:46.638Z,13.50
2019-03-20T09:08:37.066Z,12.60
2019-03-20T09:09:36.101Z,9.60
2019-03-20T09:10:36.594Z,13.40
2019-03-20T09:11:36.346Z,14.70
2019-03-20T09:12:36.231Z,12.90
2019-03-20T09:13:36.964Z,10.20
2019-03-20T09:14:36.031Z,15.60
2019-03-20T09:15:36.163Z,19.00
2019-03-20T09:16:36.034Z,9.10
2019-03-20T09:17:36.042Z,14.30
2019-03-20T09:18:36.065Z,12.10
2019-03-20T09:19:36.030Z,11.70
2019-03-20T09:20:35.989Z,11.20
2019-03-20T09:21:35.930Z,13.40
2019-03-20T09:22:36.119Z,13.20
2019-03-20T09:23:36.210Z,13.80
2019-03-20T09:24:35.923Z,14.00
2019-03-20T09:25:35.919Z,12.90
2019-03-20T09:26:35.879Z,15.30
2019-03-20T09:27:35.902Z,9.10
2019-03-20T09:28:35.862Z,11.80
2019-03-20T09:29:36.511Z,17.00
2019-03-20T09:30:35.838Z,10.60
2019-03-20T09:31:35.852Z,14.30
2019-03-20T09:32:35.912Z,9.60
2019-03-20T09:33:35.816Z,9.50
2019-03-20T09:34:35.820Z,12.90
2019-03-20T09:35:35.799Z,12.70
2019-03-20T09:36:43.089Z,18.00
2019-03-20T09:37:37.181Z,11.30
2019-03-20T09:38:43.341Z,13.10
2019-03-20T09:39:35.749Z,9.10
2019-03-20T09:40:35.729Z,10.30
2019-03-20T09:41:35.725Z,11.90
2019-03-20T09:42:36.096Z,12.00
2019-03-20T09:43:35.731Z,10.90
2019-03-20T09:44:35.691Z,8.30
2019-03-20T09:45:35.688Z,7.30
2019-03-20T09:46:35.734Z,11.10
2019-03-20T09:47:35.660Z,12.10
2019-03-20T09:48:35.647Z,16.70
2019-03-20T09:49:35.922Z,13.30
2019-03-20T09:50:35.792Z,14.90
2019-03-20T09:51:35.638Z,11.70
2019-03-20T09:52:35.606Z,12.90
2019-03-20T09:53:35.597Z,11.90
2019-03-20T09:54:35.612Z,7.80
2019-03-20T09:55:35.927Z,11.30
2019-03-20T09:56:35.592Z,14.50
2019-03-20T09:57:35.821Z,10.40
2019-03-20T09:58:35.625Z,9.90
2019-03-20T09:59:35.532Z,11.30
2019-03-20T10:00:35.781Z,11.40
2019-03-20T10:01:35.552Z,10.80
2019-03-20T10:02:35.630Z,10.20
2019-03-20T10:03:35.499Z,15.00
2019-03-20T10:04:35.485Z,15.20
2019-03-20T10:05:35.506Z,14.40
2019-03-20T10:06:35.459Z,10.30
2019-03-20T10:07:35.491Z,10.00
2019-03-20T10:08:35.458Z,13.10
2019-03-20T10:09:35.452Z,13.40
2019-03-20T10:10:35.610Z,12.90
2019-03-20T10:11:35.539Z,9.20
2019-03-20T10:12:35.691Z,9.70
2019-03-20T10:13:36.550Z,11.50
2019-03-20T10:14:35.557Z,8.00
2019-03-20T10:15:35.480Z,15.30
2019-03-20T10:16:35.391Z,11.40
2019-03-20T10:17:38.111Z,9.60
2019-03-20T10:18:35.330Z,13.50
2019-03-20T10:19:35.421Z,10.60
2019-03-20T10:20:35.313Z,10.80
2019-03-20T10:21:35.296Z,10.90
2019-03-20T10:22:35.284Z,14.80
2019-03-20T10:23:35.301Z,15.10
2019-03-20T10:24:35.303Z,8.00
2019-03-20T10:25:44.118Z,9.20
2019-03-20T10:26:36.272Z,13.20
2019-03-20T10:27:35.548Z,11.30
2019-03-20T10:28:35.551Z,11.00
2019-03-20T10:29:35.362Z,14.10
2019-03-20T10:30:35.316Z,8.00
2019-03-20T10:31:35.701Z,9.60
2019-03-20T10:32:35.291Z,8.50
2019-03-20T10:33:35.216Z,11.40
2019-03-20T10:34:39.365Z,10.00
2019-03-20T10:35:35.183Z,11.10
2019-03-20T10:36:35.152Z,12.50
2019-03-20T10:37:35.157Z,11.60
2019-03-20T10:38:35.201Z,15.10
2019-03-20T10:39:35.198Z,9.80
2019-03-20T10:40:35.133Z,11.40
2019-03-20T10:41:35.260Z,13.10
2019-03-20T10:42:35.150Z,10.00
2019-03-20T10:43:35.796Z,9.90
2019-03-20T10:44:35.899Z,8.70
2019-03-20T10:45:35.849Z,12.20
2019-03-20T10:46:35.038Z,9.00
2019-03-20T10:47:35.582Z,11.30
2019-03-20T10:48:35.135Z,9.70
2019-03-20T10:49:36.124Z,9.90
2019-03-20T10:50:35.639Z,6.50
2019-03-20T10:51:34.988Z,8.10
2019-03-20T10:52:35.609Z,11.30
2019-03-20T10:53:36.179Z,7.80
2019-03-20T10:54:35.741Z,8.20
2019-03-20T10:55:35.303Z,8.20
2019-03-20T10:56:35.432Z,14.10
2019-03-20T10:57:34.918Z,10.20
2019-03-20T10:58:34.914Z,8.40
2019-03-20T10:59:34.899Z,7.90
2019-03-20T11:00:34.932Z,9.50
2019-03-20T11:01:42.616Z,7.70
2019-03-20T11:02:36.018Z,6.80
2019-03-20T11:03:35.558Z,7.00
2019-03-20T11:04:35.071Z,10.10
2019-03-20T11:05:36.179Z,8.80
2019-03-20T11:06:35.148Z,11.40
2019-03-20T11:07:35.261Z,6.90
2019-03-20T11:08:34.803Z,9.50
2019-03-20T11:09:34.813Z,7.00
2019-03-20T11:10:35.144Z,8.20
2019-03-20T11:11:34.853Z,8.70
2019-03-20T11:12:34.838Z,7.50
2019-03-20T11:13:35.223Z,10.30
2019-03-20T11:14:35.626Z,9.70
2019-03-20T11:15:34.786Z,8.70
2019-03-20T11:16:34.725Z,12.40
2019-03-20T11:17:34.768Z,12.20
2019-03-20T11:18:35.086Z,9.10
2019-03-20T11:19:35.405Z,9.00
2019-03-20T11:20:36.708Z,9.50
2019-03-20T11:21:35.336Z,9.10
2019-03-20T11:22:34.718Z,8.50
2019-03-20T11:23:34.762Z,11.00
2019-03-20T11:24:34.784Z,9.80
2019-03-20T11:25:34.681Z,9.00
2019-03-20T11:26:34.661Z,9.40
2019-03-20T11:27:34.608Z,10.00
2019-03-20T11:28:35.460Z,6.30
2019-03-20T11:29:34.682Z,7.30
2019-03-20T11:30:34.649Z,8.60
2019-03-20T11:31:34.700Z,10.70
2019-03-20T11:32:34.710Z,9.20
2019-03-20T11:33:34.816Z,8.50
2019-03-20T11:34:34.664Z,8.70
2019-03-20T11:35:35.547Z,8.80
2019-03-20T11:36:34.507Z,10.50
2019-03-20T11:37:34.961Z,14.10
2019-03-20T11:38:34.526Z,8.30
2019-03-20T11:39:34.474Z,7.20
2019-03-20T11:40:34.522Z,9.90
2019-03-20T11:41:34.456Z,8.40
2019-03-20T11:42:35.167Z,8.80
2019-03-20T11:43:34.547Z,9.60
2019-03-20T11:44:34.423Z,11.20
2019-03-20T11:45:34.412Z,10.40
2019-03-20T11:46:34.406Z,9.70
2019-03-20T11:47:34.418Z,9.30
2019-03-20T11:48:34.497Z,8.50
2019-03-20T11:49:35.744Z,8.20
2019-03-20T11:50:34.364Z,9.90
2019-03-20T11:51:34.368Z,10.60
2019-03-20T11:52:34.344Z,11.10
2019-03-20T11:53:34.366Z,12.00
2019-03-20T11:54:34.317Z,9.10
2019-03-20T11:55:34.840Z,9.00
2019-03-20T11:56:34.302Z,10.20
2019-03-20T11:57:34.286Z,12.90
2019-03-20T11:58:34.279Z,10.10
2019-03-20T11:59:35.186Z,10.00
2019-03-20T12:00:34.329Z,11.40
2019-03-20T12:01:34.581Z,10.30
2019-03-20T12:02:34.381Z,7.80
2019-03-20T12:03:34.366Z,7.60
2019-03-20T12:04:34.801Z,8.00
2019-03-20T12:05:34.407Z,12.20
2019-03-20T12:06:34.610Z,9.20
2019-03-20T12:07:35.510Z,9.20
2019-03-20T12:08:34.653Z,9.90
2019-03-20T12:09:40.992Z,7.90
2019-03-20T12:10:35.418Z,11.80
2019-03-20T12:11:45.454Z,12.60
2019-03-20T12:12:35.158Z,8.90
2019-03-20T12:13:34.235Z,10.40
2019-03-20T12:14:34.272Z,9.10
2019-03-20T12:15:34.221Z,10.00
2019-03-20T12:16:34.320Z,9.20
2019-03-20T12:17:34.108Z,11.10
2019-03-20T12:18:34.081Z,8.00
2019-03-20T12:19:44.801Z,10.00
2019-03-20T12:20:35.644Z,8.60
2019-03-20T12:21:34.916Z,7.80
2019-03-20T12:22:36.045Z,7.70
2019-03-20T12:23:34.262Z,12.30
2019-03-20T12:24:34.253Z,10.00
2019-03-20T12:25:35.643Z,7.30
2019-03-20T12:26:34.095Z,9.00
2019-03-20T12:27:34.581Z,7.20
2019-03-20T12:28:34.656Z,8.70
2019-03-20T12:29:35.139Z,10.90
2019-03-20T12:30:33.939Z,10.70
2019-03-20T12:31:33.979Z,14.60
2019-03-20T12:32:36.362Z,9.40
2019-03-20T12:33:34.067Z,9.70
2019-03-20T12:34:34.543Z,9.70
2019-03-20T12:35:33.927Z,7.90
2019-03-20T12:36:34.024Z,14.80
2019-03-20T12:37:34.764Z,9.20
2019-03-20T12:38:33.891Z,9.00
2019-03-20T12:39:34.471Z,10.90
2019-03-20T12:40:34.034Z,13.20
2019-03-20T12:41:33.841Z,10.20
2019-03-20T12:42:33.934Z,9.80
2019-03-20T12:43:33.892Z,9.70
2019-03-20T12:44:33.793Z,9.90
2019-03-20T12:45:33.782Z,8.70
2019-03-20T12:46:41.545Z,9.90
2019-03-20T12:47:34.881Z,8.40
2019-03-20T12:48:33.863Z,10.10
2019-03-20T12:49:33.951Z,11.40
2019-03-20T12:50:34.037Z,9.70
2019-03-20T12:51:33.826Z,11.30
2019-03-20T12:52:33.718Z,9.40
2019-03-20T12:53:35.120Z,10.80
2019-03-20T12:54:33.718Z,10.00
2019-03-20T12:55:34.155Z,7.40
2019-03-20T12:56:33.667Z,14.50
2019-03-20T12:57:33.679Z,7.70
2019-03-20T12:58:33.641Z,10.70
2019-03-20T12:59:33.655Z,11.50
2019-03-20T13:00:34.199Z,11.90
2019-03-20T13:01:34.469Z,11.10
2019-03-20T13:02:33.630Z,10.90
2019-03-20T13:03:33.667Z,7.60
2019-03-20T13:04:33.684Z,6.20
2019-03-20T13:05:33.611Z,6.80
2019-03-20T13:06:33.617Z,10.60